sensor_id;sensor_type;location;lat;lon;timestamp;P1;durP1;ratioP1;P2;durP2;ratioP2
38717;SDS011;24468;52.128;9.278;2024-02-15T00:02:14;8.70;;;7.90;;
38717;SDS011;24468;52.128;9.278;2024-02-15T00:04:40;8.52;;;7.63;;
38717;SDS011;24468;52.128;9.278;2024-02-15T00:07:06;10.43;;;7.63;;
38717;SDS011;24468;52.128;9.278;2024-02-15T00:09:31;8.00;;;7.20;;
38717;SDS011;24468;52.128;9.278;2024-02-15T00:11:57;7.78;;;6.97;;
38717;SDS011;24468;52.128;9.278;2024-02-15T00:14:24;8.65;;;7.30;;
38717;SDS011;24468;52.128;9.278;2024-02-15T00:16:52;7.43;;;6.72;;
38717;SDS011;24468;52.128;9.278;2024-02-15T00:19:18;8.80;;;7.68;;
38717;SDS011;24468;52.128;9.278;2024-02-15T00:21:43;8.27;;;7.47;;
38717;SDS011;24468;52.128;9.278;2024-02-15T00:24:09;8.80;;;7.57;;
38717;SDS011;24468;52.128;9.278;2024-02-15T00:26:35;8.15;;;7.22;;
38717;SDS011;24468;52.128;9.278;2024-02-15T00:29:01;7.25;;;6.65;;
38717;SDS011;24468;52.128;9.278;2024-02-15T00:31:26;7.88;;;6.38;;
38717;SDS011;24468;52.128;9.278;2024-02-15T00:33:52;9.18;;;8.15;;
38717;SDS011;24468;52.128;9.278;2024-02-15T00:36:18;8.55;;;7.28;;
38717;SDS011;24468;52.128;9.278;2024-02-15T00:38:44;7.57;;;6.70;;
38717;SDS011;24468;52.128;9.278;2024-02-15T00:41:10;7.30;;;6.60;;
38717;SDS011;24468;52.128;9.278;2024-02-15T00:43:35;6.70;;;6.05;;
38717;SDS011;24468;52.128;9.278;2024-02-15T00:46:01;7.07;;;6.35;;
38717;SDS011;24468;52.128;9.278;2024-02-15T00:48:26;7.00;;;6.40;;
38717;SDS011;24468;52.128;9.278;2024-02-15T00:50:54;9.07;;;6.80;;
38717;SDS011;24468;52.128;9.278;2024-02-15T00:53:21;7.68;;;6.88;;
38717;SDS011;24468;52.128;9.278;2024-02-15T00:55:47;7.85;;;6.90;;
38717;SDS011;24468;52.128;9.278;2024-02-15T00:58:12;8.05;;;6.22;;
38717;SDS011;24468;52.128;9.278;2024-02-15T01:00:38;5.32;;;4.82;;
38717;SDS011;24468;52.128;9.278;2024-02-15T01:03:03;7.10;;;6.43;;
38717;SDS011;24468;52.128;9.278;2024-02-15T01:05:29;7.45;;;6.63;;
38717;SDS011;24468;52.128;9.278;2024-02-15T01:07:55;5.78;;;5.18;;
38717;SDS011;24468;52.128;9.278;2024-02-15T01:10:21;9.73;;;6.10;;
38717;SDS011;24468;52.128;9.278;2024-02-15T01:12:49;6.32;;;5.40;;
38717;SDS011;24468;52.128;9.278;2024-02-15T01:15:14;5.90;;;5.30;;
38717;SDS011;24468;52.128;9.278;2024-02-15T01:17:43;5.68;;;5.05;;
38717;SDS011;24468;52.128;9.278;2024-02-15T01:20:09;6.00;;;5.35;;
38717;SDS011;24468;52.128;9.278;2024-02-15T01:22:35;5.65;;;5.15;;
38717;SDS011;24468;52.128;9.278;2024-02-15T01:25:01;5.85;;;5.07;;
38717;SDS011;24468;52.128;9.278;2024-02-15T01:27:27;4.78;;;4.38;;
38717;SDS011;24468;52.128;9.278;2024-02-15T01:29:55;7.03;;;4.85;;
38717;SDS011;24468;52.128;9.278;2024-02-15T01:32:21;5.10;;;4.60;;
38717;SDS011;24468;52.128;9.278;2024-02-15T01:34:47;4.60;;;4.20;;
38717;SDS011;24468;52.128;9.278;2024-02-15T01:37:13;4.50;;;4.10;;
38717;SDS011;24468;52.128;9.278;2024-02-15T01:39:38;4.93;;;4.43;;
38717;SDS011;24468;52.128;9.278;2024-02-15T01:42:05;5.25;;;4.75;;
38717;SDS011;24468;52.128;9.278;2024-02-15T01:44:31;4.32;;;3.92;;
38717;SDS011;24468;52.128;9.278;2024-02-15T01:46:56;3.95;;;3.65;;
38717;SDS011;24468;52.128;9.278;2024-02-15T01:49:23;4.00;;;3.60;;
38717;SDS011;24468;52.128;9.278;2024-02-15T01:51:50;4.05;;;3.65;;
38717;SDS011;24468;52.128;9.278;2024-02-15T01:54:18;4.63;;;4.20;;
38717;SDS011;24468;52.128;9.278;2024-02-15T01:56:45;3.85;;;3.55;;
38717;SDS011;24468;52.128;9.278;2024-02-15T01:59:11;4.05;;;3.65;;
38717;SDS011;24468;52.128;9.278;2024-02-15T02:01:39;3.83;;;3.53;;
38717;SDS011;24468;52.128;9.278;2024-02-15T02:04:06;3.88;;;3.58;;
38717;SDS011;24468;52.128;9.278;2024-02-15T02:06:33;4.43;;;4.03;;
38717;SDS011;24468;52.128;9.278;2024-02-15T02:08:59;5.55;;;4.18;;
38717;SDS011;24468;52.128;9.278;2024-02-15T02:11:25;4.05;;;3.75;;
38717;SDS011;24468;52.128;9.278;2024-02-15T02:13:51;4.35;;;3.95;;
38717;SDS011;24468;52.128;9.278;2024-02-15T02:16:26;5.63;;;4.68;;
38717;SDS011;24468;52.128;9.278;2024-02-15T02:19:00;6.57;;;4.53;;
38717;SDS011;24468;52.128;9.278;2024-02-15T02:21:26;4.45;;;4.07;;
38717;SDS011;24468;52.128;9.278;2024-02-15T02:23:55;4.35;;;3.95;;
38717;SDS011;24468;52.128;9.278;2024-02-15T02:26:23;4.20;;;3.80;;
38717;SDS011;24468;52.128;9.278;2024-02-15T02:28:50;4.20;;;3.80;;
38717;SDS011;24468;52.128;9.278;2024-02-15T02:31:18;3.22;;;2.92;;
38717;SDS011;24468;52.128;9.278;2024-02-15T02:33:49;4.78;;;4.38;;
38717;SDS011;24468;52.128;9.278;2024-02-15T02:36:18;3.78;;;3.38;;
38717;SDS011;24468;52.128;9.278;2024-02-15T02:38:44;3.42;;;3.13;;
38717;SDS011;24468;52.128;9.278;2024-02-15T02:41:16;3.65;;;3.35;;
38717;SDS011;24468;52.128;9.278;2024-02-15T02:43:44;4.78;;;4.28;;
38717;SDS011;24468;52.128;9.278;2024-02-15T02:46:10;3.67;;;3.33;;
38717;SDS011;24468;52.128;9.278;2024-02-15T02:48:37;4.05;;;3.72;;
38717;SDS011;24468;52.128;9.278;2024-02-15T02:51:03;3.00;;;2.80;;
38717;SDS011;24468;52.128;9.278;2024-02-15T02:53:29;3.75;;;3.30;;
38717;SDS011;24468;52.128;9.278;2024-02-15T02:55:58;3.40;;;3.10;;
38717;SDS011;24468;52.128;9.278;2024-02-15T02:58:23;4.05;;;3.20;;
38717;SDS011;24468;52.128;9.278;2024-02-15T03:00:49;3.75;;;3.45;;
38717;SDS011;24468;52.128;9.278;2024-02-15T03:03:16;4.57;;;3.88;;
38717;SDS011;24468;52.128;9.278;2024-02-15T03:05:42;5.90;;;4.18;;
38717;SDS011;24468;52.128;9.278;2024-02-15T03:08:08;4.60;;;3.83;;
38717;SDS011;24468;52.128;9.278;2024-02-15T03:10:34;4.43;;;4.03;;
38717;SDS011;24468;52.128;9.278;2024-02-15T03:13:00;4.95;;;4.50;;
38717;SDS011;24468;52.128;9.278;2024-02-15T03:15:25;4.78;;;4.15;;
38717;SDS011;24468;52.128;9.278;2024-02-15T03:17:51;4.95;;;4.40;;
38717;SDS011;24468;52.128;9.278;2024-02-15T03:20:16;4.45;;;4.00;;
38717;SDS011;24468;52.128;9.278;2024-02-15T03:22:55;4.28;;;3.95;;
38717;SDS011;24468;52.128;9.278;2024-02-15T03:25:23;5.30;;;4.80;;
38717;SDS011;24468;52.128;9.278;2024-02-15T03:27:53;5.38;;;4.65;;
38717;SDS011;24468;52.128;9.278;2024-02-15T03:30:23;5.57;;;5.00;;
38717;SDS011;24468;52.128;9.278;2024-02-15T03:32:56;5.18;;;4.57;;
38717;SDS011;24468;52.128;9.278;2024-02-15T03:35:23;4.95;;;4.47;;
38717;SDS011;24468;52.128;9.278;2024-02-15T03:37:51;5.00;;;4.50;;
38717;SDS011;24468;52.128;9.278;2024-02-15T03:40:18;5.50;;;4.75;;
38717;SDS011;24468;52.128;9.278;2024-02-15T03:42:44;5.53;;;4.55;;
38717;SDS011;24468;52.128;9.278;2024-02-15T03:45:11;6.68;;;4.70;;
38717;SDS011;24468;52.128;9.278;2024-02-15T03:47:37;5.45;;;4.38;;
38717;SDS011;24468;52.128;9.278;2024-02-15T03:50:04;4.35;;;3.95;;
38717;SDS011;24468;52.128;9.278;2024-02-15T03:52:31;4.55;;;4.15;;
38717;SDS011;24468;52.128;9.278;2024-02-15T03:54:57;4.43;;;4.03;;
38717;SDS011;24468;52.128;9.278;2024-02-15T03:57:24;5.22;;;4.50;;
38717;SDS011;24468;52.128;9.278;2024-02-15T03:59:50;4.75;;;4.35;;
38717;SDS011;24468;52.128;9.278;2024-02-15T04:02:18;5.55;;;4.40;;
38717;SDS011;24468;52.128;9.278;2024-02-15T04:04:44;6.47;;;5.80;;
38717;SDS011;24468;52.128;9.278;2024-02-15T04:07:13;5.75;;;5.20;;
38717;SDS011;24468;52.128;9.278;2024-02-15T04:09:39;4.28;;;3.88;;
38717;SDS011;24468;52.128;9.278;2024-02-15T04:12:05;4.57;;;4.18;;
38717;SDS011;24468;52.128;9.278;2024-02-15T04:14:32;5.60;;;5.10;;
38717;SDS011;24468;52.128;9.278;2024-02-15T04:16:59;5.05;;;4.60;;
38717;SDS011;24468;52.128;9.278;2024-02-15T04:19:26;5.35;;;4.85;;
38717;SDS011;24468;52.128;9.278;2024-02-15T04:21:52;5.70;;;4.40;;
38717;SDS011;24468;52.128;9.278;2024-02-15T04:24:20;5.13;;;4.63;;
38717;SDS011;24468;52.128;9.278;2024-02-15T04:26:46;5.35;;;4.85;;
38717;SDS011;24468;52.128;9.278;2024-02-15T04:29:13;5.50;;;4.88;;
38717;SDS011;24468;52.128;9.278;2024-02-15T04:31:40;5.78;;;5.05;;
38717;SDS011;24468;52.128;9.278;2024-02-15T04:34:07;6.18;;;5.57;;
38717;SDS011;24468;52.128;9.278;2024-02-15T04:36:34;5.35;;;4.85;;
38717;SDS011;24468;52.128;9.278;2024-02-15T04:39:00;5.95;;;5.35;;
38717;SDS011;24468;52.128;9.278;2024-02-15T04:41:29;6.85;;;5.78;;
38717;SDS011;24468;52.128;9.278;2024-02-15T04:43:55;8.80;;;6.70;;
38717;SDS011;24468;52.128;9.278;2024-02-15T04:46:21;7.03;;;6.32;;
38717;SDS011;24468;52.128;9.278;2024-02-15T04:48:47;8.05;;;7.22;;
38717;SDS011;24468;52.128;9.278;2024-02-15T04:51:17;9.38;;;7.93;;
38717;SDS011;24468;52.128;9.278;2024-02-15T04:53:44;8.75;;;7.78;;
38717;SDS011;24468;52.128;9.278;2024-02-15T04:56:11;9.63;;;8.63;;
38717;SDS011;24468;52.128;9.278;2024-02-15T04:58:41;10.65;;;9.63;;
38717;SDS011;24468;52.128;9.278;2024-02-15T05:01:12;11.00;;;9.52;;
38717;SDS011;24468;52.128;9.278;2024-02-15T05:03:38;10.75;;;9.65;;
38717;SDS011;24468;52.128;9.278;2024-02-15T05:06:04;10.15;;;8.98;;
38717;SDS011;24468;52.128;9.278;2024-02-15T05:08:31;12.00;;;9.68;;
38717;SDS011;24468;52.128;9.278;2024-02-15T05:10:57;18.20;;;11.48;;
38717;SDS011;24468;52.128;9.278;2024-02-15T05:13:26;13.00;;;10.02;;
38717;SDS011;24468;52.128;9.278;2024-02-15T05:15:51;10.85;;;9.57;;
38717;SDS011;24468;52.128;9.278;2024-02-15T05:18:17;13.38;;;10.95;;
38717;SDS011;24468;52.128;9.278;2024-02-15T05:20:43;12.98;;;10.48;;
38717;SDS011;24468;52.128;9.278;2024-02-15T05:23:09;15.40;;;10.38;;
38717;SDS011;24468;52.128;9.278;2024-02-15T05:25:34;13.82;;;9.93;;
38717;SDS011;24468;52.128;9.278;2024-02-15T05:28:00;14.80;;;12.07;;
38717;SDS011;24468;52.128;9.278;2024-02-15T05:30:26;13.27;;;11.68;;
38717;SDS011;24468;52.128;9.278;2024-02-15T05:32:52;13.18;;;10.18;;
38717;SDS011;24468;52.128;9.278;2024-02-15T05:35:18;13.95;;;10.93;;
38717;SDS011;24468;52.128;9.278;2024-02-15T05:37:44;15.63;;;11.05;;
38717;SDS011;24468;52.128;9.278;2024-02-15T05:40:11;16.10;;;11.35;;
38717;SDS011;24468;52.128;9.278;2024-02-15T05:42:43;12.75;;;10.98;;
38717;SDS011;24468;52.128;9.278;2024-02-15T05:47:48;12.95;;;10.60;;
38717;SDS011;24468;52.128;9.278;2024-02-15T05:50:13;13.50;;;10.30;;
38717;SDS011;24468;52.128;9.278;2024-02-15T05:52:40;15.45;;;10.70;;
38717;SDS011;24468;52.128;9.278;2024-02-15T05:55:06;17.08;;;11.32;;
38717;SDS011;24468;52.128;9.278;2024-02-15T05:57:32;12.68;;;9.85;;
38717;SDS011;24468;52.128;9.278;2024-02-15T05:59:57;14.98;;;10.45;;
38717;SDS011;24468;52.128;9.278;2024-02-15T06:02:27;13.07;;;9.85;;
38717;SDS011;24468;52.128;9.278;2024-02-15T06:04:52;14.50;;;10.07;;
38717;SDS011;24468;52.128;9.278;2024-02-15T06:07:19;11.98;;;10.60;;
38717;SDS011;24468;52.128;9.278;2024-02-15T06:09:45;13.35;;;9.30;;
38717;SDS011;24468;52.128;9.278;2024-02-15T06:12:11;16.38;;;10.50;;
38717;SDS011;24468;52.128;9.278;2024-02-15T06:14:37;14.80;;;10.18;;
38717;SDS011;24468;52.128;9.278;2024-02-15T06:17:02;12.20;;;9.18;;
38717;SDS011;24468;52.128;9.278;2024-02-15T06:19:28;12.00;;;8.60;;
38717;SDS011;24468;52.128;9.278;2024-02-15T06:21:53;10.30;;;8.73;;
38717;SDS011;24468;52.128;9.278;2024-02-15T06:24:19;12.77;;;8.13;;
38717;SDS011;24468;52.128;9.278;2024-02-15T06:26:44;12.80;;;7.90;;
38717;SDS011;24468;52.128;9.278;2024-02-15T06:29:10;8.55;;;7.65;;
38717;SDS011;24468;52.128;9.278;2024-02-15T06:31:55;10.32;;;6.47;;
38717;SDS011;24468;52.128;9.278;2024-02-15T06:34:39;8.68;;;5.95;;
38717;SDS011;24468;52.128;9.278;2024-02-15T06:37:35;6.10;;;5.25;;
38717;SDS011;24468;52.128;9.278;2024-02-15T06:40:21;7.22;;;5.85;;
38717;SDS011;24468;52.128;9.278;2024-02-15T06:42:47;7.63;;;5.90;;
38717;SDS011;24468;52.128;9.278;2024-02-15T06:45:13;10.35;;;5.45;;
38717;SDS011;24468;52.128;9.278;2024-02-15T06:47:42;8.57;;;5.55;;
38717;SDS011;24468;52.128;9.278;2024-02-15T06:50:18;8.38;;;5.35;;
38717;SDS011;24468;52.128;9.278;2024-02-15T06:52:43;9.40;;;5.50;;
38717;SDS011;24468;52.128;9.278;2024-02-15T06:55:10;9.82;;;5.20;;
38717;SDS011;24468;52.128;9.278;2024-02-15T06:57:37;6.20;;;4.00;;
38717;SDS011;24468;52.128;9.278;2024-02-15T07:00:05;6.13;;;4.20;;
38717;SDS011;24468;52.128;9.278;2024-02-15T07:02:34;4.93;;;4.40;;
38717;SDS011;24468;52.128;9.278;2024-02-15T07:05:00;6.55;;;4.70;;
38717;SDS011;24468;52.128;9.278;2024-02-15T07:07:27;8.90;;;3.85;;
38717;SDS011;24468;52.128;9.278;2024-02-15T07:09:52;8.48;;;4.30;;
38717;SDS011;24468;52.128;9.278;2024-02-15T07:12:19;6.03;;;3.63;;
38717;SDS011;24468;52.128;9.278;2024-02-15T07:14:46;6.93;;;3.97;;
38717;SDS011;24468;52.128;9.278;2024-02-15T07:17:12;8.35;;;4.25;;
38717;SDS011;24468;52.128;9.278;2024-02-15T07:19:44;12.52;;;8.93;;
38717;SDS011;24468;52.128;9.278;2024-02-15T07:22:10;10.27;;;4.35;;
38717;SDS011;24468;52.128;9.278;2024-02-15T07:24:36;7.55;;;4.57;;
38717;SDS011;24468;52.128;9.278;2024-02-15T07:27:03;5.68;;;3.50;;
38717;SDS011;24468;52.128;9.278;2024-02-15T07:29:30;8.23;;;3.63;;
38717;SDS011;24468;52.128;9.278;2024-02-15T07:32:02;6.13;;;3.13;;
38717;SDS011;24468;52.128;9.278;2024-02-15T07:34:29;3.70;;;2.70;;
38717;SDS011;24468;52.128;9.278;2024-02-15T07:36:55;7.57;;;2.92;;
38717;SDS011;24468;52.128;9.278;2024-02-15T07:39:23;6.55;;;3.38;;
38717;SDS011;24468;52.128;9.278;2024-02-15T07:41:50;7.68;;;2.67;;
38717;SDS011;24468;52.128;9.278;2024-02-15T07:44:16;6.13;;;2.65;;
38717;SDS011;24468;52.128;9.278;2024-02-15T07:46:42;4.57;;;3.00;;
38717;SDS011;24468;52.128;9.278;2024-02-15T07:49:09;4.15;;;2.40;;
38717;SDS011;24468;52.128;9.278;2024-02-15T07:51:34;3.90;;;2.40;;
38717;SDS011;24468;52.128;9.278;2024-02-15T07:54:01;6.15;;;2.30;;
38717;SDS011;24468;52.128;9.278;2024-02-15T07:56:26;4.28;;;2.05;;
38717;SDS011;24468;52.128;9.278;2024-02-15T07:58:52;5.47;;;3.28;;
38717;SDS011;24468;52.128;9.278;2024-02-15T08:01:18;5.68;;;3.45;;
38717;SDS011;24468;52.128;9.278;2024-02-15T08:03:46;3.42;;;2.10;;
38717;SDS011;24468;52.128;9.278;2024-02-15T08:06:13;7.22;;;2.47;;
38717;SDS011;24468;52.128;9.278;2024-02-15T08:08:41;6.45;;;2.22;;
38717;SDS011;24468;52.128;9.278;2024-02-15T08:11:11;5.65;;;1.70;;
38717;SDS011;24468;52.128;9.278;2024-02-15T08:16:13;2.53;;;1.73;;
38717;SDS011;24468;52.128;9.278;2024-02-15T08:18:41;2.33;;;1.70;;
38717;SDS011;24468;52.128;9.278;2024-02-15T08:21:09;4.07;;;1.40;;
38717;SDS011;24468;52.128;9.278;2024-02-15T08:23:35;3.47;;;1.65;;
38717;SDS011;24468;52.128;9.278;2024-02-15T08:26:01;3.08;;;1.58;;
38717;SDS011;24468;52.128;9.278;2024-02-15T08:28:27;2.30;;;1.33;;
38717;SDS011;24468;52.128;9.278;2024-02-15T08:30:54;1.92;;;1.60;;
38717;SDS011;24468;52.128;9.278;2024-02-15T08:33:21;2.47;;;1.23;;
38717;SDS011;24468;52.128;9.278;2024-02-15T08:35:48;6.80;;;1.23;;
38717;SDS011;24468;52.128;9.278;2024-02-15T08:38:14;2.95;;;1.05;;
38717;SDS011;24468;52.128;9.278;2024-02-15T08:40:39;3.53;;;1.33;;
38717;SDS011;24468;52.128;9.278;2024-02-15T08:43:05;2.05;;;1.15;;
38717;SDS011;24468;52.128;9.278;2024-02-15T08:45:31;3.05;;;1.45;;
38717;SDS011;24468;52.128;9.278;2024-02-15T08:47:56;2.92;;;1.15;;
38717;SDS011;24468;52.128;9.278;2024-02-15T08:50:22;2.53;;;1.30;;
38717;SDS011;24468;52.128;9.278;2024-02-15T08:52:48;2.03;;;1.27;;
38717;SDS011;24468;52.128;9.278;2024-02-15T08:55:14;2.33;;;1.50;;
38717;SDS011;24468;52.128;9.278;2024-02-15T08:57:42;4.28;;;1.80;;
38717;SDS011;24468;52.128;9.278;2024-02-15T09:00:09;3.47;;;1.60;;
38717;SDS011;24468;52.128;9.278;2024-02-15T09:02:42;3.20;;;1.98;;
38717;SDS011;24468;52.128;9.278;2024-02-15T09:05:09;2.20;;;1.65;;
38717;SDS011;24468;52.128;9.278;2024-02-15T09:07:34;2.60;;;1.65;;
38717;SDS011;24468;52.128;9.278;2024-02-15T09:10:05;3.42;;;1.55;;
38717;SDS011;24468;52.128;9.278;2024-02-15T09:12:32;5.60;;;1.52;;
38717;SDS011;24468;52.128;9.278;2024-02-15T09:14:58;2.58;;;1.10;;
38717;SDS011;24468;52.128;9.278;2024-02-15T09:17:23;2.85;;;1.20;;
38717;SDS011;24468;52.128;9.278;2024-02-15T09:19:51;3.58;;;1.65;;
38717;SDS011;24468;52.128;9.278;2024-02-15T09:22:18;1.35;;;0.98;;
38717;SDS011;24468;52.128;9.278;2024-02-15T09:24:44;20.05;;;2.53;;
38717;SDS011;24468;52.128;9.278;2024-02-15T09:27:10;2.97;;;1.55;;
38717;SDS011;24468;52.128;9.278;2024-02-15T09:29:37;25.00;;;2.83;;
38717;SDS011;24468;52.128;9.278;2024-02-15T09:32:04;14.57;;;6.40;;
38717;SDS011;24468;52.128;9.278;2024-02-15T09:34:29;2.85;;;1.27;;
38717;SDS011;24468;52.128;9.278;2024-02-15T09:36:55;3.97;;;1.67;;
38717;SDS011;24468;52.128;9.278;2024-02-15T09:39:21;1.92;;;1.65;;
38717;SDS011;24468;52.128;9.278;2024-02-15T09:41:48;2.33;;;1.40;;
38717;SDS011;24468;52.128;9.278;2024-02-15T09:44:20;3.58;;;1.65;;
38717;SDS011;24468;52.128;9.278;2024-02-15T09:46:46;4.22;;;1.20;;
38717;SDS011;24468;52.128;9.278;2024-02-15T09:49:16;2.83;;;1.38;;
38717;SDS011;24468;52.128;9.278;2024-02-15T09:51:42;3.58;;;1.60;;
38717;SDS011;24468;52.128;9.278;2024-02-15T09:54:11;4.28;;;1.10;;
38717;SDS011;24468;52.128;9.278;2024-02-15T09:56:38;3.78;;;1.42;;
38717;SDS011;24468;52.128;9.278;2024-02-15T09:59:05;2.50;;;1.17;;
38717;SDS011;24468;52.128;9.278;2024-02-15T10:01:32;2.03;;;0.98;;
38717;SDS011;24468;52.128;9.278;2024-02-15T10:04:01;3.35;;;0.95;;
38717;SDS011;24468;52.128;9.278;2024-02-15T10:06:31;3.25;;;1.10;;
38717;SDS011;24468;52.128;9.278;2024-02-15T10:09:22;2.28;;;1.00;;
38717;SDS011;24468;52.128;9.278;2024-02-15T10:11:59;3.97;;;1.40;;
38717;SDS011;24468;52.128;9.278;2024-02-15T10:14:26;5.63;;;2.22;;
38717;SDS011;24468;52.128;9.278;2024-02-15T10:16:54;2.92;;;2.10;;
38717;SDS011;24468;52.128;9.278;2024-02-15T10:19:21;3.47;;;1.27;;
38717;SDS011;24468;52.128;9.278;2024-02-15T10:21:53;3.40;;;1.25;;
38717;SDS011;24468;52.128;9.278;2024-02-15T10:24:22;2.00;;;0.98;;
38717;SDS011;24468;52.128;9.278;2024-02-15T10:26:49;4.13;;;1.25;;
38717;SDS011;24468;52.128;9.278;2024-02-15T10:29:15;3.38;;;1.65;;
38717;SDS011;24468;52.128;9.278;2024-02-15T10:31:55;3.10;;;1.33;;
38717;SDS011;24468;52.128;9.278;2024-02-15T10:34:23;2.45;;;1.05;;
38717;SDS011;24468;52.128;9.278;2024-02-15T10:36:52;2.75;;;1.80;;
38717;SDS011;24468;52.128;9.278;2024-02-15T10:39:21;6.75;;;3.53;;
38717;SDS011;24468;52.128;9.278;2024-02-15T10:44:23;14.45;;;8.38;;
38717;SDS011;24468;52.128;9.278;2024-02-15T10:46:53;5.47;;;1.85;;
38717;SDS011;24468;52.128;9.278;2024-02-15T10:49:20;3.45;;;1.17;;
38717;SDS011;24468;52.128;9.278;2024-02-15T10:54:27;4.13;;;2.35;;
38717;SDS011;24468;52.128;9.278;2024-02-15T10:57:09;2.03;;;1.50;;
38717;SDS011;24468;52.128;9.278;2024-02-15T10:59:38;1.55;;;1.33;;
38717;SDS011;24468;52.128;9.278;2024-02-15T11:05:03;5.82;;;3.90;;
38717;SDS011;24468;52.128;9.278;2024-02-15T11:07:35;19.63;;;10.23;;
38717;SDS011;24468;52.128;9.278;2024-02-15T11:10:02;4.82;;;1.77;;
38717;SDS011;24468;52.128;9.278;2024-02-15T11:12:33;5.50;;;1.92;;
38717;SDS011;24468;52.128;9.278;2024-02-15T11:14:59;8.07;;;3.13;;
38717;SDS011;24468;52.128;9.278;2024-02-15T11:22:57;4.68;;;2.33;;
38717;SDS011;24468;52.128;9.278;2024-02-15T11:25:35;7.00;;;3.83;;
38717;SDS011;24468;52.128;9.278;2024-02-15T11:30:49;5.97;;;1.80;;
38717;SDS011;24468;52.128;9.278;2024-02-15T11:36:02;3.67;;;1.73;;
38717;SDS011;24468;52.128;9.278;2024-02-15T11:38:32;3.33;;;1.85;;
38717;SDS011;24468;52.128;9.278;2024-02-15T11:41:00;2.53;;;1.60;;
38717;SDS011;24468;52.128;9.278;2024-02-15T11:46:20;2.80;;;1.42;;
38717;SDS011;24468;52.128;9.278;2024-02-15T11:48:46;4.03;;;2.60;;
38717;SDS011;24468;52.128;9.278;2024-02-15T11:51:33;3.88;;;1.90;;
38717;SDS011;24468;52.128;9.278;2024-02-15T11:54:10;2.97;;;1.60;;
38717;SDS011;24468;52.128;9.278;2024-02-15T11:56:54;5.15;;;2.20;;
38717;SDS011;24468;52.128;9.278;2024-02-15T11:59:38;2.22;;;1.33;;
38717;SDS011;24468;52.128;9.278;2024-02-15T12:02:38;2.97;;;1.73;;
38717;SDS011;24468;52.128;9.278;2024-02-15T12:05:23;2.38;;;1.65;;
38717;SDS011;24468;52.128;9.278;2024-02-15T12:08:06;1.85;;;1.60;;
38717;SDS011;24468;52.128;9.278;2024-02-15T12:11:00;3.05;;;1.40;;
38717;SDS011;24468;52.128;9.278;2024-02-15T12:13:51;2.60;;;1.48;;
38717;SDS011;24468;52.128;9.278;2024-02-15T12:16:36;3.75;;;1.60;;
38717;SDS011;24468;52.128;9.278;2024-02-15T12:19:20;3.15;;;1.67;;
38717;SDS011;24468;52.128;9.278;2024-02-15T12:21:46;2.40;;;1.70;;
38717;SDS011;24468;52.128;9.278;2024-02-15T12:24:13;3.55;;;1.38;;
38717;SDS011;24468;52.128;9.278;2024-02-15T12:26:39;3.03;;;1.30;;
38717;SDS011;24468;52.128;9.278;2024-02-15T12:29:06;2.75;;;1.25;;
38717;SDS011;24468;52.128;9.278;2024-02-15T12:31:33;2.40;;;1.23;;
38717;SDS011;24468;52.128;9.278;2024-02-15T12:34:03;2.03;;;1.20;;
38717;SDS011;24468;52.128;9.278;2024-02-15T12:36:36;3.00;;;1.35;;
38717;SDS011;24468;52.128;9.278;2024-02-15T12:39:03;3.47;;;1.70;;
38717;SDS011;24468;52.128;9.278;2024-02-15T12:41:40;1.20;;;1.10;;
38717;SDS011;24468;52.128;9.278;2024-02-15T12:44:07;1.92;;;1.50;;
38717;SDS011;24468;52.128;9.278;2024-02-15T12:46:38;1.88;;;1.20;;
38717;SDS011;24468;52.128;9.278;2024-02-15T12:51:51;1.45;;;0.80;;
38717;SDS011;24468;52.128;9.278;2024-02-15T12:54:21;2.67;;;1.13;;
38717;SDS011;24468;52.128;9.278;2024-02-15T12:56:48;1.95;;;1.30;;
38717;SDS011;24468;52.128;9.278;2024-02-15T12:59:17;2.45;;;1.25;;
38717;SDS011;24468;52.128;9.278;2024-02-15T13:01:44;3.67;;;1.02;;
38717;SDS011;24468;52.128;9.278;2024-02-15T13:04:20;1.80;;;0.93;;
38717;SDS011;24468;52.128;9.278;2024-02-15T13:06:49;1.30;;;1.00;;
38717;SDS011;24468;52.128;9.278;2024-02-15T13:09:14;1.52;;;0.90;;
38717;SDS011;24468;52.128;9.278;2024-02-15T13:11:40;2.45;;;1.10;;
38717;SDS011;24468;52.128;9.278;2024-02-15T13:14:05;2.40;;;0.80;;
38717;SDS011;24468;52.128;9.278;2024-02-15T13:16:31;1.65;;;0.75;;
38717;SDS011;24468;52.128;9.278;2024-02-15T13:18:56;1.80;;;0.85;;
38717;SDS011;24468;52.128;9.278;2024-02-15T13:21:23;0.85;;;0.85;;
38717;SDS011;24468;52.128;9.278;2024-02-15T13:23:55;1.25;;;0.95;;
38717;SDS011;24468;52.128;9.278;2024-02-15T13:26:21;2.97;;;1.10;;
38717;SDS011;24468;52.128;9.278;2024-02-15T13:28:48;1.48;;;1.00;;
38717;SDS011;24468;52.128;9.278;2024-02-15T13:31:14;2.75;;;1.08;;
38717;SDS011;24468;52.128;9.278;2024-02-15T13:33:40;4.88;;;1.52;;
38717;SDS011;24468;52.128;9.278;2024-02-15T13:36:06;1.02;;;0.82;;
38717;SDS011;24468;52.128;9.278;2024-02-15T13:38:35;4.05;;;1.48;;
38717;SDS011;24468;52.128;9.278;2024-02-15T13:41:04;3.08;;;1.67;;
38717;SDS011;24468;52.128;9.278;2024-02-15T13:43:29;2.40;;;1.00;;
38717;SDS011;24468;52.128;9.278;2024-02-15T13:45:57;4.50;;;1.23;;
38717;SDS011;24468;52.128;9.278;2024-02-15T13:48:23;1.02;;;0.88;;
38717;SDS011;24468;52.128;9.278;2024-02-15T13:50:51;2.90;;;1.27;;
38717;SDS011;24468;52.128;9.278;2024-02-15T13:53:18;2.63;;;0.75;;
38717;SDS011;24468;52.128;9.278;2024-02-15T13:55:43;1.13;;;0.90;;
38717;SDS011;24468;52.128;9.278;2024-02-15T13:58:09;2.78;;;1.02;;
38717;SDS011;24468;52.128;9.278;2024-02-15T14:00:37;2.45;;;1.15;;
38717;SDS011;24468;52.128;9.278;2024-02-15T14:03:07;3.95;;;1.77;;
38717;SDS011;24468;52.128;9.278;2024-02-15T14:05:35;1.52;;;1.02;;
38717;SDS011;24468;52.128;9.278;2024-02-15T14:08:02;3.97;;;1.10;;
38717;SDS011;24468;52.128;9.278;2024-02-15T14:10:36;2.03;;;1.45;;
38717;SDS011;24468;52.128;9.278;2024-02-15T14:13:02;3.13;;;1.48;;
38717;SDS011;24468;52.128;9.278;2024-02-15T14:15:36;2.13;;;1.25;;
38717;SDS011;24468;52.128;9.278;2024-02-15T14:18:06;1.63;;;1.40;;
38717;SDS011;24468;52.128;9.278;2024-02-15T14:20:43;2.85;;;1.40;;
38717;SDS011;24468;52.128;9.278;2024-02-15T14:23:12;3.05;;;1.67;;
38717;SDS011;24468;52.128;9.278;2024-02-15T14:25:40;2.17;;;1.65;;
38717;SDS011;24468;52.128;9.278;2024-02-15T14:28:06;2.42;;;1.30;;
38717;SDS011;24468;52.128;9.278;2024-02-15T14:30:34;2.58;;;1.60;;
38717;SDS011;24468;52.128;9.278;2024-02-15T14:33:23;2.13;;;1.17;;
38717;SDS011;24468;52.128;9.278;2024-02-15T14:35:49;4.70;;;2.90;;
38717;SDS011;24468;52.128;9.278;2024-02-15T14:38:18;11.27;;;8.38;;
38717;SDS011;24468;52.128;9.278;2024-02-15T14:40:47;3.13;;;2.00;;
38717;SDS011;24468;52.128;9.278;2024-02-15T14:43:22;3.88;;;1.83;;
38717;SDS011;24468;52.128;9.278;2024-02-15T14:45:51;4.82;;;1.63;;
38717;SDS011;24468;52.128;9.278;2024-02-15T14:48:17;2.38;;;1.60;;
38717;SDS011;24468;52.128;9.278;2024-02-15T14:50:45;3.40;;;2.17;;
38717;SDS011;24468;52.128;9.278;2024-02-15T14:53:14;3.17;;;2.05;;
38717;SDS011;24468;52.128;9.278;2024-02-15T14:55:40;7.38;;;3.25;;
38717;SDS011;24468;52.128;9.278;2024-02-15T14:58:11;3.03;;;1.85;;
38717;SDS011;24468;52.128;9.278;2024-02-15T15:00:39;3.80;;;2.05;;
38717;SDS011;24468;52.128;9.278;2024-02-15T15:03:06;5.40;;;3.15;;
38717;SDS011;24468;52.128;9.278;2024-02-15T15:05:32;2.47;;;0.93;;
38717;SDS011;24468;52.128;9.278;2024-02-15T15:08:16;2.65;;;1.13;;
38717;SDS011;24468;52.128;9.278;2024-02-15T15:11:00;3.88;;;1.23;;
38717;SDS011;24468;52.128;9.278;2024-02-15T15:13:44;2.42;;;1.20;;
38717;SDS011;24468;52.128;9.278;2024-02-15T15:16:09;2.92;;;2.42;;
38717;SDS011;24468;52.128;9.278;2024-02-15T15:18:39;5.45;;;2.42;;
38717;SDS011;24468;52.128;9.278;2024-02-15T15:21:05;3.90;;;2.47;;
38717;SDS011;24468;52.128;9.278;2024-02-15T15:23:31;3.10;;;2.30;;